createdAt,value
2023-09-16T00:01:59.470Z,23.51
2023-09-16T00:04:26.017Z,23.46
2023-09-16T00:06:52.732Z,23.39
2023-09-16T00:09:19.214Z,22.93
2023-09-16T00:11:45.708Z,22.84
2023-09-16T00:14:12.195Z,23.35
2023-09-16T00:16:38.832Z,23.42
2023-09-16T00:19:05.368Z,23.45
2023-09-16T00:21:31.928Z,23.51
2023-09-16T00:23:58.473Z,23.47
2023-09-16T00:26:24.957Z,23.58
2023-09-16T00:28:51.852Z,23.57
2023-09-16T00:31:18.454Z,23.61
2023-09-16T00:33:45.021Z,23.65
2023-09-16T00:36:11.480Z,23.67
2023-09-16T00:38:37.913Z,23.49
2023-09-16T00:41:04.348Z,23.29
2023-09-16T00:43:30.810Z,22.92
2023-09-16T00:45:57.292Z,22.68
2023-09-16T00:48:23.751Z,22.58
2023-09-16T00:50:50.210Z,22.45
2023-09-16T00:53:16.699Z,22.31
2023-09-16T00:55:43.215Z,22.66
2023-09-16T00:58:09.646Z,22.60
2023-09-16T01:00:36.142Z,22.54
2023-09-16T01:03:02.771Z,22.49
2023-09-16T01:05:29.476Z,22.67
2023-09-16T01:07:56.053Z,22.43
2023-09-16T01:10:22.535Z,22.44
2023-09-16T01:12:49.183Z,22.65
2023-09-16T01:15:15.653Z,22.87
2023-09-16T01:17:42.323Z,22.52
2023-09-16T01:20:08.811Z,22.51
2023-09-16T01:22:35.340Z,22.71
2023-09-16T01:25:01.878Z,22.85
2023-09-16T01:27:28.424Z,22.77
2023-09-16T01:29:54.901Z,22.76
2023-09-16T01:32:21.453Z,22.63
2023-09-16T01:34:47.915Z,22.39
2023-09-16T01:37:14.386Z,22.46
2023-09-16T01:39:40.919Z,22.52
2023-09-16T01:42:09.431Z,22.47
2023-09-16T01:44:35.870Z,22.87
2023-09-16T01:47:02.328Z,23.11
2023-09-16T01:49:28.994Z,23.01
2023-09-16T01:51:55.556Z,23.34
2023-09-16T01:54:22.111Z,23.43
2023-09-16T01:56:48.646Z,23.32
2023-09-16T01:59:15.109Z,23.35
2023-09-16T02:01:41.708Z,23.43
2023-09-16T02:04:08.379Z,23.39
2023-09-16T02:06:34.963Z,23.39
2023-09-16T02:09:01.424Z,23.47
2023-09-16T02:11:27.884Z,23.37
2023-09-16T02:13:54.559Z,23.33
2023-09-16T02:16:21.139Z,23.55
2023-09-16T02:18:48.046Z,23.35
2023-09-16T02:21:14.879Z,23.53
2023-09-16T02:23:41.377Z,23.55
2023-09-16T02:26:07.865Z,23.56
2023-09-16T02:28:34.311Z,23.55
2023-09-16T02:31:00.866Z,23.48
2023-09-16T02:33:27.398Z,23.49
2023-09-16T02:35:53.852Z,23.47
2023-09-16T02:38:20.325Z,23.48
2023-09-16T02:40:46.696Z,23.37
2023-09-16T02:43:13.149Z,23.30
2023-09-16T02:45:39.689Z,23.42
2023-09-16T02:48:06.349Z,23.35
2023-09-16T02:50:32.872Z,23.27
2023-09-16T02:53:09.576Z,23.35
2023-09-16T02:55:36.014Z,23.27
2023-09-16T02:58:02.580Z,23.10
2023-09-16T03:00:29.121Z,23.31
2023-09-16T03:02:55.691Z,23.42
2023-09-16T03:05:22.213Z,23.48
2023-09-16T03:07:48.664Z,23.48
2023-09-16T03:10:15.106Z,23.29
2023-09-16T03:12:41.674Z,23.47
2023-09-16T03:15:08.140Z,23.39
2023-09-16T03:17:34.630Z,23.31
2023-09-16T03:20:01.088Z,23.28
2023-09-16T03:22:27.506Z,23.32
2023-09-16T03:24:54.035Z,23.28
2023-09-16T03:27:20.546Z,23.43
2023-09-16T03:29:47.194Z,23.38
2023-09-16T03:32:13.643Z,23.31
2023-09-16T03:34:40.083Z,23.35
2023-09-16T03:37:06.546Z,23.38
2023-09-16T03:39:33.071Z,23.42
2023-09-16T03:41:59.571Z,23.26
2023-09-16T03:44:26.021Z,23.34
2023-09-16T03:46:52.674Z,23.46
2023-09-16T03:49:19.169Z,23.29
2023-09-16T03:51:45.691Z,23.12
2023-09-16T03:54:12.128Z,23.25
2023-09-16T03:56:38.592Z,23.13
2023-09-16T03:59:05.186Z,23.09
2023-09-16T04:01:31.679Z,23.14
2023-09-16T04:03:58.233Z,23.08
2023-09-16T04:06:24.734Z,22.93
2023-09-16T04:08:51.220Z,23.13
2023-09-16T04:11:17.783Z,23.30
2023-09-16T04:13:44.222Z,23.27
2023-09-16T04:16:10.770Z,22.92
2023-09-16T04:18:37.415Z,22.67
2023-09-16T04:21:04.211Z,22.39
2023-09-16T04:23:31.046Z,22.61
2023-09-16T04:25:57.751Z,22.46
2023-09-16T04:28:24.364Z,22.31
2023-09-16T04:30:50.933Z,22.47
2023-09-16T04:33:17.420Z,22.17
2023-09-16T04:35:43.945Z,22.28
2023-09-16T04:38:10.418Z,22.22
2023-09-16T04:40:36.896Z,21.84
2023-09-16T04:43:03.345Z,21.92
2023-09-16T04:45:29.810Z,22.20
2023-09-16T04:47:56.317Z,21.98
2023-09-16T04:50:22.828Z,22.06
2023-09-16T04:52:49.413Z,22.08
2023-09-16T04:55:15.958Z,22.27
2023-09-16T04:57:42.580Z,22.60
2023-09-16T05:00:09.134Z,22.80
2023-09-16T05:02:35.591Z,22.83
2023-09-16T05:05:02.084Z,22.71
2023-09-16T05:07:28.530Z,22.46
2023-09-16T05:09:55.162Z,22.37
2023-09-16T05:12:21.619Z,22.51
2023-09-16T05:14:48.059Z,22.44
2023-09-16T05:17:14.560Z,22.42
2023-09-16T05:19:41.005Z,22.47
2023-09-16T05:22:07.539Z,22.78
2023-09-16T05:24:34.165Z,22.81
2023-09-16T05:27:00.632Z,22.26
2023-09-16T05:29:27.070Z,22.46
2023-09-16T05:31:53.542Z,22.17
2023-09-16T05:34:20.019Z,22.22
2023-09-16T05:36:46.569Z,22.35
2023-09-16T05:39:13.167Z,22.20
2023-09-16T05:41:39.829Z,22.20
2023-09-16T05:44:06.272Z,22.27
2023-09-16T05:46:32.908Z,22.27
2023-09-16T05:48:59.536Z,22.51
2023-09-16T05:51:26.017Z,22.72
2023-09-16T05:53:52.447Z,22.58
2023-09-16T05:56:18.898Z,22.34
2023-09-16T05:58:45.346Z,22.57
2023-09-16T06:01:11.940Z,22.58
2023-09-16T06:03:38.556Z,22.53
2023-09-16T06:06:05.073Z,22.84
2023-09-16T06:08:31.574Z,22.83
2023-09-16T06:10:58.110Z,23.13
2023-09-16T06:13:24.758Z,22.59
2023-09-16T06:15:51.354Z,22.71
2023-09-16T06:18:17.857Z,22.34
2023-09-16T06:20:44.393Z,22.40
2023-09-16T06:23:10.929Z,22.63
2023-09-16T06:25:37.401Z,22.35
2023-09-16T06:28:03.991Z,22.42
2023-09-16T06:30:30.547Z,22.42
2023-09-16T06:32:57.155Z,22.43
2023-09-16T06:35:23.584Z,22.22
2023-09-16T06:37:50.120Z,22.25
2023-09-16T06:40:16.621Z,22.15
2023-09-16T06:42:43.222Z,22.41
2023-09-16T06:45:09.665Z,22.37
2023-09-16T06:47:36.238Z,22.42
2023-09-16T06:50:02.732Z,22.74
2023-09-16T06:52:29.223Z,22.56
2023-09-16T06:54:55.730Z,22.49
2023-09-16T06:57:22.177Z,22.82
2023-09-16T06:59:48.665Z,22.87
2023-09-16T07:02:15.141Z,22.58
2023-09-16T07:04:41.712Z,22.69
2023-09-16T07:07:08.248Z,23.19
2023-09-16T07:09:34.774Z,23.19
2023-09-16T07:12:01.213Z,23.48
2023-09-16T07:14:27.842Z,23.10
2023-09-16T07:16:54.343Z,23.50
2023-09-16T07:19:20.983Z,23.90
2023-09-16T07:21:47.573Z,23.92
2023-09-16T07:24:14.125Z,23.77
2023-09-16T07:26:40.567Z,24.22
2023-09-16T07:29:07.070Z,23.89
2023-09-16T07:31:33.565Z,23.89
2023-09-16T07:34:00.121Z,23.88
2023-09-16T07:36:26.647Z,23.92
2023-09-16T07:38:53.196Z,24.00
2023-09-16T07:41:19.723Z,24.22
2023-09-16T07:43:46.250Z,24.22
2023-09-16T07:46:12.817Z,24.48
2023-09-16T07:48:39.609Z,24.27
2023-09-16T07:51:06.091Z,23.88
2023-09-16T07:53:32.599Z,23.64
2023-09-16T07:55:59.056Z,23.95
2023-09-16T07:58:25.535Z,24.22
2023-09-16T08:00:52.133Z,23.94
2023-09-16T08:03:18.844Z,24.45
2023-09-16T08:05:45.477Z,24.71
2023-09-16T08:08:12.089Z,24.79
2023-09-16T08:10:38.613Z,24.65
2023-09-16T08:13:05.176Z,24.72
2023-09-16T08:15:31.688Z,24.37
2023-09-16T08:17:58.180Z,24.03
2023-09-16T08:20:24.626Z,23.87
2023-09-16T08:22:51.099Z,23.82
2023-09-16T08:25:17.577Z,23.98
2023-09-16T08:27:44.409Z,24.24
2023-09-16T08:30:10.908Z,24.39
2023-09-16T08:32:37.531Z,24.61
2023-09-16T08:35:04.015Z,24.46
2023-09-16T08:37:30.658Z,24.85
2023-09-16T08:39:57.135Z,25.01
2023-09-16T08:42:23.668Z,24.81
2023-09-16T08:44:50.396Z,24.60
2023-09-16T08:47:17.054Z,24.32
2023-09-16T08:49:43.716Z,24.19
2023-09-16T08:52:10.291Z,24.36
2023-09-16T08:54:36.727Z,24.58
2023-09-16T08:57:03.286Z,24.89
2023-09-16T08:59:29.705Z,24.09
2023-09-16T09:01:56.426Z,24.40
2023-09-16T09:04:23.034Z,24.43
2023-09-16T09:06:49.543Z,23.88
2023-09-16T09:09:16.148Z,23.90
2023-09-16T09:11:43.071Z,24.16
2023-09-16T09:14:10.347Z,24.43
2023-09-16T09:16:36.867Z,24.64
2023-09-16T09:19:03.470Z,24.63
2023-09-16T09:21:29.980Z,24.84
2023-09-16T09:23:56.442Z,25.01
2023-09-16T09:26:23.018Z,24.89
2023-09-16T09:28:49.772Z,25.22
2023-09-16T09:31:16.741Z,25.60
2023-09-16T09:33:43.515Z,25.46
2023-09-16T09:36:10.279Z,25.08
2023-09-16T09:38:36.764Z,25.48
2023-09-16T09:41:03.232Z,25.24
2023-09-16T09:43:29.691Z,24.89
2023-09-16T09:45:56.223Z,24.92
2023-09-16T09:48:22.792Z,25.06
2023-09-16T09:50:49.217Z,24.90
2023-09-16T09:53:15.662Z,25.65
2023-09-16T09:55:42.126Z,25.43
2023-09-16T09:58:08.613Z,25.62
2023-09-16T10:00:35.055Z,25.84
2023-09-16T10:03:01.654Z,26.12
2023-09-16T10:05:28.237Z,26.13
2023-09-16T10:07:54.819Z,26.05
2023-09-16T10:10:21.492Z,26.14
2023-09-16T10:12:48.159Z,26.06
2023-09-16T10:15:14.651Z,25.75
2023-09-16T10:17:41.301Z,25.88
2023-09-16T10:20:07.750Z,25.78
2023-09-16T10:22:34.216Z,25.53
2023-09-16T10:25:00.727Z,25.60
2023-09-16T10:27:27.278Z,25.79
2023-09-16T10:29:53.743Z,25.83
2023-09-16T10:32:20.781Z,26.07
2023-09-16T10:34:47.485Z,25.92
2023-09-16T10:37:14.051Z,26.22
2023-09-16T10:39:40.656Z,25.69
2023-09-16T10:42:07.116Z,26.05
2023-09-16T10:44:33.642Z,25.81
2023-09-16T10:47:00.280Z,26.47
2023-09-16T10:49:26.984Z,26.56
2023-09-16T10:51:53.546Z,26.40
2023-09-16T10:54:20.231Z,26.45
2023-09-16T10:56:46.872Z,26.92
2023-09-16T10:59:13.365Z,26.79
2023-09-16T11:01:39.893Z,27.06
2023-09-16T11:04:06.492Z,27.27
2023-09-16T11:06:32.930Z,27.41
2023-09-16T11:08:59.373Z,27.24
2023-09-16T11:11:25.888Z,26.67
2023-09-16T11:13:52.547Z,26.79
2023-09-16T11:16:19.203Z,26.72
2023-09-16T11:18:45.736Z,26.56
2023-09-16T11:21:14.217Z,26.95
2023-09-16T11:23:40.776Z,26.29
2023-09-16T11:26:07.257Z,26.78
2023-09-16T11:28:34.008Z,27.00
2023-09-16T11:31:00.545Z,27.05
2023-09-16T11:33:27.155Z,26.93
2023-09-16T11:35:53.716Z,26.89
2023-09-16T11:38:20.243Z,26.28
2023-09-16T11:40:46.798Z,26.43
2023-09-16T11:43:13.386Z,26.58
2023-09-16T11:45:39.969Z,26.44
2023-09-16T11:48:06.534Z,26.44
2023-09-16T11:50:33.033Z,26.45
2023-09-16T11:52:59.644Z,26.04
2023-09-16T11:55:26.141Z,25.92
2023-09-16T11:57:52.606Z,25.63
2023-09-16T12:00:19.105Z,25.38
2023-09-16T12:02:45.791Z,25.87
2023-09-16T12:05:12.325Z,25.90
2023-09-16T12:07:38.771Z,25.69
2023-09-16T12:10:05.514Z,25.72
2023-09-16T12:12:32.047Z,25.81
2023-09-16T12:14:58.567Z,26.27
2023-09-16T12:17:25.085Z,25.84
2023-09-16T12:19:51.658Z,25.88
2023-09-16T12:22:18.324Z,25.79
2023-09-16T12:24:44.954Z,25.25
2023-09-16T12:27:11.508Z,25.99
2023-09-16T12:29:38.084Z,26.29
2023-09-16T12:32:04.639Z,26.03
2023-09-16T12:34:31.167Z,26.16
2023-09-16T12:36:57.769Z,25.88
2023-09-16T12:39:24.323Z,26.40
2023-09-16T12:42:04.711Z,26.38
2023-09-16T12:44:37.703Z,26.31
2023-09-16T12:47:04.280Z,27.17
2023-09-16T12:49:30.902Z,27.44
2023-09-16T12:51:57.610Z,27.52
2023-09-16T12:54:24.164Z,27.89
2023-09-16T12:56:50.656Z,27.85
2023-09-16T12:59:17.169Z,27.46
2023-09-16T13:01:43.836Z,27.50
2023-09-16T13:04:10.374Z,27.41
2023-09-16T13:06:36.858Z,27.52
2023-09-16T13:09:03.380Z,27.71
2023-09-16T13:11:30.025Z,27.29
2023-09-16T13:13:56.593Z,27.12
2023-09-16T13:16:23.360Z,27.03
2023-09-16T13:18:50.011Z,27.43
2023-09-16T13:21:16.812Z,27.60
2023-09-16T13:23:43.336Z,27.68
2023-09-16T13:26:10.051Z,27.76
2023-09-16T13:28:36.556Z,27.78
2023-09-16T13:31:03.055Z,27.69
2023-09-16T13:33:29.589Z,27.57
2023-09-16T13:35:56.081Z,27.79
2023-09-16T13:38:22.644Z,27.83
2023-09-16T13:40:49.255Z,28.17
2023-09-16T13:43:15.819Z,27.87
2023-09-16T13:45:42.367Z,27.69
2023-09-16T13:48:08.829Z,28.01
2023-09-16T13:50:35.329Z,28.13
2023-09-16T13:53:01.824Z,28.13
2023-09-16T13:55:29.626Z,27.67
2023-09-16T13:57:58.127Z,27.96
2023-09-16T14:00:24.641Z,27.75
2023-09-16T14:02:51.276Z,27.76
2023-09-16T14:05:17.859Z,27.95
2023-09-16T14:07:44.385Z,27.80
2023-09-16T14:10:10.950Z,27.61
2023-09-16T14:12:38.590Z,27.91
2023-09-16T14:15:05.178Z,28.36
2023-09-16T14:17:31.724Z,28.04
2023-09-16T14:19:58.299Z,28.19
2023-09-16T14:22:24.822Z,28.40
2023-09-16T14:24:51.374Z,28.53
2023-09-16T14:27:17.825Z,28.89
2023-09-16T14:29:44.281Z,29.29
2023-09-16T14:32:10.761Z,29.35
2023-09-16T14:34:37.374Z,29.43
2023-09-16T14:37:03.983Z,30.02
2023-09-16T14:39:30.450Z,30.89
2023-09-16T14:41:56.898Z,31.60
2023-09-16T14:44:23.367Z,31.07
2023-09-16T14:46:49.921Z,32.36
2023-09-16T14:49:16.630Z,32.84
2023-09-16T14:51:43.128Z,32.38
2023-09-16T14:54:09.692Z,32.22
2023-09-16T14:56:36.120Z,32.01
2023-09-16T14:59:02.563Z,32.32
2023-09-16T15:01:29.236Z,33.24
2023-09-16T15:03:55.820Z,33.46
2023-09-16T15:06:22.352Z,33.71
2023-09-16T15:08:49.295Z,33.40
2023-09-16T15:11:16.133Z,34.30
2023-09-16T15:13:42.629Z,34.59
2023-09-16T15:16:09.179Z,34.66
2023-09-16T15:18:35.826Z,34.44
2023-09-16T15:21:02.436Z,34.58
2023-09-16T15:23:29.028Z,34.41
2023-09-16T15:25:55.597Z,33.48
2023-09-16T15:28:22.073Z,33.70
2023-09-16T15:30:48.761Z,33.30
2023-09-16T15:33:15.271Z,34.11
2023-09-16T15:35:41.744Z,33.55
2023-09-16T15:38:08.233Z,33.18
2023-09-16T15:40:34.746Z,32.59
2023-09-16T15:43:01.320Z,31.93
2023-09-16T15:45:27.826Z,32.01
2023-09-16T15:47:54.366Z,31.85
2023-09-16T15:50:20.993Z,31.38
2023-09-16T15:52:47.604Z,31.15
2023-09-16T15:55:14.083Z,30.80
2023-09-16T15:57:40.765Z,30.68
2023-09-16T16:00:07.261Z,30.33
2023-09-16T16:02:33.815Z,30.28
2023-09-16T16:05:00.372Z,29.95
2023-09-16T16:07:26.831Z,29.39
2023-09-16T16:09:53.372Z,29.32
2023-09-16T16:12:20.078Z,29.12
2023-09-16T16:14:46.545Z,29.07
2023-09-16T16:17:23.227Z,28.88
2023-09-16T16:19:50.703Z,28.83
2023-09-16T16:22:17.290Z,28.83
2023-09-16T16:24:43.769Z,28.58
2023-09-16T16:27:10.365Z,28.61
2023-09-16T16:29:36.837Z,28.55
2023-09-16T16:32:03.356Z,28.66
2023-09-16T16:34:29.944Z,28.54
2023-09-16T16:36:56.479Z,28.56
2023-09-16T16:39:22.969Z,28.50
2023-09-16T16:41:52.395Z,28.63
2023-09-16T16:44:18.949Z,28.48
2023-09-16T16:46:48.286Z,28.43
2023-09-16T16:49:16.206Z,28.56
2023-09-16T16:51:42.664Z,28.41
2023-09-16T16:54:11.196Z,28.43
2023-09-16T16:56:37.688Z,28.32
2023-09-16T16:59:04.272Z,28.39
2023-09-16T17:01:30.927Z,28.30
2023-09-16T17:03:57.485Z,28.13
2023-09-16T17:06:24.125Z,28.15
2023-09-16T17:08:50.724Z,27.93
2023-09-16T17:11:17.177Z,27.99
2023-09-16T17:13:43.620Z,28.03
2023-09-16T17:16:10.244Z,27.77
2023-09-16T17:18:36.884Z,27.69
2023-09-16T17:21:03.342Z,27.53
2023-09-16T17:23:29.838Z,27.40
2023-09-16T17:25:56.455Z,27.30
2023-09-16T17:28:23.010Z,27.29
2023-09-16T17:30:49.496Z,27.30
2023-09-16T17:33:15.966Z,27.00
2023-09-16T17:35:42.445Z,27.03
2023-09-16T17:38:09.047Z,26.94
2023-09-16T17:40:35.568Z,26.68
2023-09-16T17:43:02.062Z,26.61
2023-09-16T17:45:28.547Z,26.55
2023-09-16T17:47:55.063Z,26.48
2023-09-16T17:50:21.624Z,26.41
2023-09-16T17:52:48.245Z,26.42
2023-09-16T17:55:14.751Z,26.28
2023-09-16T17:57:41.246Z,26.22
2023-09-16T18:00:07.854Z,26.27
2023-09-16T18:02:34.326Z,26.10
2023-09-16T18:05:00.809Z,26.16
2023-09-16T18:07:27.357Z,26.08
2023-09-16T18:09:53.881Z,25.94
2023-09-16T18:12:20.413Z,25.89
2023-09-16T18:14:46.955Z,25.89
2023-09-16T18:17:13.453Z,25.93
2023-09-16T18:19:40.048Z,25.96
2023-09-16T18:22:06.746Z,26.00
2023-09-16T18:24:33.233Z,26.04
2023-09-16T18:26:59.691Z,26.00
2023-09-16T18:29:26.197Z,26.01
2023-09-16T18:31:52.750Z,25.83
2023-09-16T18:34:19.379Z,25.83
2023-09-16T18:36:45.956Z,25.82
2023-09-16T18:39:12.531Z,25.69
2023-09-16T18:41:39.023Z,25.74
2023-09-16T18:44:05.686Z,25.61
2023-09-16T18:46:32.270Z,25.61
2023-09-16T18:48:59.078Z,25.62
2023-09-16T18:51:25.793Z,25.66
2023-09-16T18:53:52.510Z,25.73
2023-09-16T18:56:19.282Z,25.77
2023-09-16T18:58:45.742Z,25.73
2023-09-16T19:01:12.349Z,25.73
2023-09-16T19:03:38.982Z,25.75
2023-09-16T19:06:05.456Z,25.61
2023-09-16T19:08:31.902Z,25.37
2023-09-16T19:10:58.343Z,25.43
2023-09-16T19:13:24.810Z,25.28
2023-09-16T19:15:51.415Z,25.19
2023-09-16T19:18:17.919Z,25.27
2023-09-16T19:20:44.397Z,25.15
2023-09-16T19:23:10.859Z,25.25
2023-09-16T19:25:37.450Z,25.17
2023-09-16T19:28:04.045Z,25.29
2023-09-16T19:30:30.537Z,25.21
2023-09-16T19:32:57.834Z,25.34
2023-09-16T19:35:24.641Z,25.44
2023-09-16T19:37:51.087Z,25.43
2023-09-16T19:40:17.836Z,25.19
2023-09-16T19:42:44.306Z,25.13
2023-09-16T19:45:10.786Z,25.32
2023-09-16T19:47:37.467Z,25.49
2023-09-16T19:50:04.190Z,25.51
2023-09-16T19:52:30.689Z,25.46
2023-09-16T19:54:57.300Z,25.48
2023-09-16T19:57:23.765Z,25.32
2023-09-16T19:59:50.223Z,25.24
2023-09-16T20:02:16.810Z,25.36
2023-09-16T20:04:43.354Z,25.27
2023-09-16T20:07:09.876Z,25.23
2023-09-16T20:09:36.534Z,25.16
2023-09-16T20:12:03.043Z,25.09
2023-09-16T20:14:29.572Z,24.95
2023-09-16T20:16:56.158Z,25.03
2023-09-16T20:19:22.849Z,24.94
2023-09-16T20:21:49.365Z,24.97
2023-09-16T20:24:15.856Z,24.99
2023-09-16T20:26:42.340Z,25.00
2023-09-16T20:29:08.818Z,24.93
2023-09-16T20:31:35.401Z,24.84
2023-09-16T20:34:11.638Z,25.00
2023-09-16T20:36:38.650Z,24.76
2023-09-16T20:39:05.084Z,24.57
2023-09-16T20:41:31.562Z,24.45
2023-09-16T20:43:58.184Z,24.27
2023-09-16T20:46:24.683Z,24.60
2023-09-16T20:48:51.168Z,24.70
2023-09-16T20:51:17.638Z,24.74
2023-09-16T20:53:44.078Z,24.22
2023-09-16T20:56:10.600Z,24.55
2023-09-16T20:58:37.186Z,24.54
2023-09-16T21:01:03.687Z,24.50
2023-09-16T21:03:30.265Z,24.33
2023-09-16T21:05:56.802Z,24.35
2023-09-16T21:08:23.309Z,24.16
2023-09-16T21:10:50.062Z,24.15
2023-09-16T21:13:16.563Z,24.11
2023-09-16T21:15:43.273Z,24.04
2023-09-16T21:18:09.843Z,24.07
2023-09-16T21:20:36.292Z,24.03
2023-09-16T21:23:03.193Z,23.88
2023-09-16T21:25:29.746Z,23.93
2023-09-16T21:27:56.370Z,23.86
2023-09-16T21:30:22.874Z,24.07
2023-09-16T21:32:49.590Z,24.13
2023-09-16T21:35:16.151Z,23.98
2023-09-16T21:37:42.617Z,23.86
2023-09-16T21:40:09.238Z,23.63
2023-09-16T21:42:35.910Z,23.61
2023-09-16T21:45:02.408Z,23.61
2023-09-16T21:47:28.885Z,23.37
2023-09-16T21:49:55.400Z,23.47
2023-09-16T21:52:21.886Z,23.50
2023-09-16T21:54:48.443Z,23.55
2023-09-16T21:57:14.926Z,23.50
2023-09-16T21:59:41.426Z,23.72
2023-09-16T22:02:07.967Z,23.51
2023-09-16T22:04:34.623Z,23.55
2023-09-16T22:07:01.438Z,23.74
2023-09-16T22:09:28.034Z,24.00
2023-09-16T22:11:54.512Z,23.98
2023-09-16T22:14:20.967Z,24.05
2023-09-16T22:16:47.514Z,24.13
2023-09-16T22:19:16.953Z,24.05
2023-09-16T22:21:43.463Z,23.73
2023-09-16T22:24:09.936Z,23.75
2023-09-16T22:26:36.434Z,23.49
2023-09-16T22:29:02.896Z,23.25
2023-09-16T22:31:29.404Z,23.38
2023-09-16T22:33:55.917Z,23.00
2023-09-16T22:36:22.365Z,23.15
2023-09-16T22:38:49.195Z,23.33
2023-09-16T22:41:16.036Z,23.27
2023-09-16T22:43:42.630Z,23.15
2023-09-16T22:46:09.115Z,23.02
2023-09-16T22:48:35.610Z,22.93
2023-09-16T22:51:02.043Z,23.24
2023-09-16T22:53:28.514Z,23.18
2023-09-16T22:55:54.981Z,23.24
2023-09-16T22:58:21.481Z,23.43
2023-09-16T23:00:48.164Z,23.41
2023-09-16T23:03:14.726Z,23.21
2023-09-16T23:05:41.293Z,23.00
2023-09-16T23:08:07.753Z,22.83
2023-09-16T23:10:34.377Z,22.69
2023-09-16T23:13:00.933Z,22.82
2023-09-16T23:15:27.475Z,22.74
2023-09-16T23:17:53.967Z,22.57
2023-09-16T23:20:20.451Z,22.43
2023-09-16T23:22:46.956Z,22.42
2023-09-16T23:25:13.463Z,22.45
2023-09-16T23:27:39.982Z,22.30
2023-09-16T23:30:06.557Z,22.30
2023-09-16T23:32:33.126Z,22.18
2023-09-16T23:34:59.664Z,22.32
2023-09-16T23:37:26.160Z,22.32
2023-09-16T23:39:52.597Z,22.29
2023-09-16T23:42:19.114Z,22.21
2023-09-16T23:44:45.681Z,22.43
2023-09-16T23:47:12.314Z,22.56
2023-09-16T23:49:38.965Z,22.17
2023-09-16T23:52:05.560Z,22.05
2023-09-16T23:54:31.989Z,22.23
2023-09-16T23:56:58.438Z,21.84
2023-09-16T23:59:24.912Z,21.96
